sensor_id;sensor_type;location;lat;lon;timestamp;P1;durP1;ratioP1;P2;durP2;ratioP2
19057;SDS011;9662;53.612;9.914;2022-08-30T00:02:39;1.13;;;1.10;;
19057;SDS011;9662;53.612;9.914;2022-08-30T00:05:08;0.80;;;0.80;;
19057;SDS011;9662;53.612;9.914;2022-08-30T00:07:36;1.00;;;1.00;;
19057;SDS011;9662;53.612;9.914;2022-08-30T00:10:03;2.60;;;1.20;;
19057;SDS011;9662;53.612;9.914;2022-08-30T00:12:30;3.10;;;1.10;;
19057;SDS011;9662;53.612;9.914;2022-08-30T00:14:57;1.00;;;1.00;;
19057;SDS011;9662;53.612;9.914;2022-08-30T00:17:24;1.10;;;1.10;;
19057;SDS011;9662;53.612;9.914;2022-08-30T00:19:51;1.90;;;1.00;;
19057;SDS011;9662;53.612;9.914;2022-08-30T00:22:19;1.13;;;1.08;;
19057;SDS011;9662;53.612;9.914;2022-08-30T00:24:45;1.50;;;1.15;;
19057;SDS011;9662;53.612;9.914;2022-08-30T00:27:13;0.88;;;0.88;;
19057;SDS011;9662;53.612;9.914;2022-08-30T00:29:40;1.60;;;1.00;;
19057;SDS011;9662;53.612;9.914;2022-08-30T00:32:07;1.27;;;0.80;;
19057;SDS011;9662;53.612;9.914;2022-08-30T00:34:34;0.80;;;0.80;;
19057;SDS011;9662;53.612;9.914;2022-08-30T00:37:00;0.93;;;0.93;;
19057;SDS011;9662;53.612;9.914;2022-08-30T00:39:28;1.00;;;1.00;;
19057;SDS011;9662;53.612;9.914;2022-08-30T00:41:55;1.00;;;1.00;;
19057;SDS011;9662;53.612;9.914;2022-08-30T00:44:22;1.00;;;1.00;;
19057;SDS011;9662;53.612;9.914;2022-08-30T00:46:49;0.80;;;0.80;;
19057;SDS011;9662;53.612;9.914;2022-08-30T00:49:15;1.40;;;1.23;;
19057;SDS011;9662;53.612;9.914;2022-08-30T00:51:42;1.20;;;1.00;;
19057;SDS011;9662;53.612;9.914;2022-08-30T00:54:09;1.80;;;1.08;;
19057;SDS011;9662;53.612;9.914;2022-08-30T00:56:38;1.17;;;1.00;;
19057;SDS011;9662;53.612;9.914;2022-08-30T00:59:05;1.00;;;1.00;;
19057;SDS011;9662;53.612;9.914;2022-08-30T01:01:34;1.05;;;0.95;;
19057;SDS011;9662;53.612;9.914;2022-08-30T01:04:02;1.00;;;1.00;;
19057;SDS011;9662;53.612;9.914;2022-08-30T01:06:30;1.00;;;1.00;;
19057;SDS011;9662;53.612;9.914;2022-08-30T01:08:58;1.15;;;1.15;;
19057;SDS011;9662;53.612;9.914;2022-08-30T01:11:26;1.33;;;1.30;;
19057;SDS011;9662;53.612;9.914;2022-08-30T01:13:55;0.82;;;0.82;;
19057;SDS011;9662;53.612;9.914;2022-08-30T01:16:23;0.98;;;0.98;;
19057;SDS011;9662;53.612;9.914;2022-08-30T01:18:51;1.10;;;1.10;;
19057;SDS011;9662;53.612;9.914;2022-08-30T01:21:22;1.00;;;1.00;;
19057;SDS011;9662;53.612;9.914;2022-08-30T01:23:55;3.03;;;1.15;;
19057;SDS011;9662;53.612;9.914;2022-08-30T01:26:24;1.00;;;1.00;;
19057;SDS011;9662;53.612;9.914;2022-08-30T01:28:53;1.00;;;0.90;;
19057;SDS011;9662;53.612;9.914;2022-08-30T01:31:23;0.98;;;0.90;;
19057;SDS011;9662;53.612;9.914;2022-08-30T01:33:50;1.23;;;1.00;;
19057;SDS011;9662;53.612;9.914;2022-08-30T01:36:18;1.00;;;1.00;;
19057;SDS011;9662;53.612;9.914;2022-08-30T01:38:46;1.48;;;1.20;;
19057;SDS011;9662;53.612;9.914;2022-08-30T01:41:18;1.02;;;1.02;;
19057;SDS011;9662;53.612;9.914;2022-08-30T01:43:46;0.93;;;0.90;;
19057;SDS011;9662;53.612;9.914;2022-08-30T01:46:15;1.10;;;1.10;;
19057;SDS011;9662;53.612;9.914;2022-08-30T01:48:43;0.90;;;0.90;;
19057;SDS011;9662;53.612;9.914;2022-08-30T01:51:11;1.10;;;0.98;;
19057;SDS011;9662;53.612;9.914;2022-08-30T01:53:39;0.90;;;0.90;;
19057;SDS011;9662;53.612;9.914;2022-08-30T01:56:06;0.95;;;0.95;;
19057;SDS011;9662;53.612;9.914;2022-08-30T01:58:35;1.17;;;1.10;;
19057;SDS011;9662;53.612;9.914;2022-08-30T02:01:04;0.90;;;0.90;;
19057;SDS011;9662;53.612;9.914;2022-08-30T02:03:34;0.90;;;0.90;;
19057;SDS011;9662;53.612;9.914;2022-08-30T02:06:01;1.05;;;1.05;;
19057;SDS011;9662;53.612;9.914;2022-08-30T02:08:29;1.00;;;1.00;;
19057;SDS011;9662;53.612;9.914;2022-08-30T02:10:56;1.57;;;1.00;;
19057;SDS011;9662;53.612;9.914;2022-08-30T02:13:24;0.80;;;0.80;;
19057;SDS011;9662;53.612;9.914;2022-08-30T02:15:52;1.80;;;1.33;;
19057;SDS011;9662;53.612;9.914;2022-08-30T02:18:19;0.98;;;0.98;;
19057;SDS011;9662;53.612;9.914;2022-08-30T02:20:46;2.10;;;1.15;;
19057;SDS011;9662;53.612;9.914;2022-08-30T02:23:13;0.90;;;0.90;;
19057;SDS011;9662;53.612;9.914;2022-08-30T02:25:40;2.00;;;1.30;;
19057;SDS011;9662;53.612;9.914;2022-08-30T02:28:07;1.13;;;0.90;;
19057;SDS011;9662;53.612;9.914;2022-08-30T02:30:34;1.35;;;0.90;;
19057;SDS011;9662;53.612;9.914;2022-08-30T02:33:02;0.90;;;0.90;;
19057;SDS011;9662;53.612;9.914;2022-08-30T02:35:29;1.03;;;1.03;;
19057;SDS011;9662;53.612;9.914;2022-08-30T02:37:56;2.33;;;1.30;;
19057;SDS011;9662;53.612;9.914;2022-08-30T02:40:23;1.00;;;1.00;;
19057;SDS011;9662;53.612;9.914;2022-08-30T02:42:50;1.00;;;1.00;;
19057;SDS011;9662;53.612;9.914;2022-08-30T02:45:17;0.98;;;0.90;;
19057;SDS011;9662;53.612;9.914;2022-08-30T02:47:43;1.00;;;1.00;;
19057;SDS011;9662;53.612;9.914;2022-08-30T02:50:12;1.10;;;1.00;;
19057;SDS011;9662;53.612;9.914;2022-08-30T02:52:39;0.97;;;0.97;;
19057;SDS011;9662;53.612;9.914;2022-08-30T02:55:06;1.35;;;1.35;;
19057;SDS011;9662;53.612;9.914;2022-08-30T02:57:34;1.10;;;1.10;;
19057;SDS011;9662;53.612;9.914;2022-08-30T03:00:02;1.00;;;1.00;;
19057;SDS011;9662;53.612;9.914;2022-08-30T03:02:30;1.10;;;1.10;;
19057;SDS011;9662;53.612;9.914;2022-08-30T03:04:57;1.00;;;1.00;;
19057;SDS011;9662;53.612;9.914;2022-08-30T03:07:25;1.57;;;1.03;;
19057;SDS011;9662;53.612;9.914;2022-08-30T03:09:52;1.02;;;1.02;;
19057;SDS011;9662;53.612;9.914;2022-08-30T03:12:19;4.60;;;1.13;;
19057;SDS011;9662;53.612;9.914;2022-08-30T03:14:46;1.27;;;1.20;;
19057;SDS011;9662;53.612;9.914;2022-08-30T03:17:13;1.90;;;1.03;;
19057;SDS011;9662;53.612;9.914;2022-08-30T03:19:41;1.10;;;1.10;;
19057;SDS011;9662;53.612;9.914;2022-08-30T03:22:08;1.13;;;1.10;;
19057;SDS011;9662;53.612;9.914;2022-08-30T03:24:37;1.40;;;1.30;;
19057;SDS011;9662;53.612;9.914;2022-08-30T03:27:04;1.13;;;1.13;;
19057;SDS011;9662;53.612;9.914;2022-08-30T03:29:32;1.40;;;1.27;;
19057;SDS011;9662;53.612;9.914;2022-08-30T03:31:59;1.30;;;1.30;;
19057;SDS011;9662;53.612;9.914;2022-08-30T03:34:26;1.13;;;1.13;;
19057;SDS011;9662;53.612;9.914;2022-08-30T03:36:53;1.92;;;1.38;;
19057;SDS011;9662;53.612;9.914;2022-08-30T03:39:22;1.25;;;1.23;;
19057;SDS011;9662;53.612;9.914;2022-08-30T03:41:51;1.30;;;1.30;;
19057;SDS011;9662;53.612;9.914;2022-08-30T03:44:18;1.10;;;1.10;;
19057;SDS011;9662;53.612;9.914;2022-08-30T03:46:45;1.10;;;1.10;;
19057;SDS011;9662;53.612;9.914;2022-08-30T03:49:12;1.10;;;1.10;;
19057;SDS011;9662;53.612;9.914;2022-08-30T03:51:39;1.40;;;1.30;;
19057;SDS011;9662;53.612;9.914;2022-08-30T03:54:06;1.00;;;1.00;;
19057;SDS011;9662;53.612;9.914;2022-08-30T03:56:33;1.70;;;1.23;;
19057;SDS011;9662;53.612;9.914;2022-08-30T03:59:02;1.00;;;1.00;;
19057;SDS011;9662;53.612;9.914;2022-08-30T04:01:29;1.30;;;1.30;;
19057;SDS011;9662;53.612;9.914;2022-08-30T04:03:55;4.30;;;1.20;;
19057;SDS011;9662;53.612;9.914;2022-08-30T04:06:22;1.00;;;1.00;;
19057;SDS011;9662;53.612;9.914;2022-08-30T04:08:49;1.15;;;1.10;;
19057;SDS011;9662;53.612;9.914;2022-08-30T04:11:16;1.30;;;1.10;;
19057;SDS011;9662;53.612;9.914;2022-08-30T04:13:44;2.65;;;1.20;;
19057;SDS011;9662;53.612;9.914;2022-08-30T04:16:14;1.20;;;1.10;;
19057;SDS011;9662;53.612;9.914;2022-08-30T04:18:41;1.08;;;1.05;;
19057;SDS011;9662;53.612;9.914;2022-08-30T04:21:08;1.60;;;1.20;;
19057;SDS011;9662;53.612;9.914;2022-08-30T04:23:34;1.20;;;1.10;;
19057;SDS011;9662;53.612;9.914;2022-08-30T04:26:01;1.25;;;1.25;;
19057;SDS011;9662;53.612;9.914;2022-08-30T04:28:28;1.35;;;1.25;;
19057;SDS011;9662;53.612;9.914;2022-08-30T04:30:55;1.50;;;1.42;;
19057;SDS011;9662;53.612;9.914;2022-08-30T04:33:23;1.98;;;1.10;;
19057;SDS011;9662;53.612;9.914;2022-08-30T04:35:50;1.30;;;1.20;;
19057;SDS011;9662;53.612;9.914;2022-08-30T04:38:16;2.60;;;1.25;;
19057;SDS011;9662;53.612;9.914;2022-08-30T04:40:44;1.48;;;1.38;;
19057;SDS011;9662;53.612;9.914;2022-08-30T04:43:12;1.35;;;1.30;;
19057;SDS011;9662;53.612;9.914;2022-08-30T04:45:39;2.05;;;1.42;;
19057;SDS011;9662;53.612;9.914;2022-08-30T04:48:06;1.25;;;1.25;;
19057;SDS011;9662;53.612;9.914;2022-08-30T04:50:35;1.15;;;1.15;;
19057;SDS011;9662;53.612;9.914;2022-08-30T04:53:02;1.20;;;1.20;;
19057;SDS011;9662;53.612;9.914;2022-08-30T04:55:29;1.38;;;1.38;;
19057;SDS011;9662;53.612;9.914;2022-08-30T04:57:56;1.48;;;1.38;;
19057;SDS011;9662;53.612;9.914;2022-08-30T05:00:23;3.80;;;1.10;;
19057;SDS011;9662;53.612;9.914;2022-08-30T05:02:49;1.20;;;1.20;;
19057;SDS011;9662;53.612;9.914;2022-08-30T05:05:16;1.92;;;1.42;;
19057;SDS011;9662;53.612;9.914;2022-08-30T05:08:02;1.10;;;1.02;;
19057;SDS011;9662;53.612;9.914;2022-08-30T05:10:29;1.30;;;1.30;;
19057;SDS011;9662;53.612;9.914;2022-08-30T05:12:56;1.38;;;1.38;;
19057;SDS011;9662;53.612;9.914;2022-08-30T05:15:23;1.48;;;1.48;;
19057;SDS011;9662;53.612;9.914;2022-08-30T05:17:50;1.38;;;1.35;;
19057;SDS011;9662;53.612;9.914;2022-08-30T05:20:16;3.78;;;1.30;;
19057;SDS011;9662;53.612;9.914;2022-08-30T05:22:43;1.92;;;1.40;;
19057;SDS011;9662;53.612;9.914;2022-08-30T05:25:15;1.30;;;1.20;;
19057;SDS011;9662;53.612;9.914;2022-08-30T05:27:43;1.17;;;1.17;;
19057;SDS011;9662;53.612;9.914;2022-08-30T05:30:10;1.42;;;1.42;;
19057;SDS011;9662;53.612;9.914;2022-08-30T05:32:38;1.40;;;1.30;;
19057;SDS011;9662;53.612;9.914;2022-08-30T05:35:06;1.20;;;1.20;;
19057;SDS011;9662;53.612;9.914;2022-08-30T05:37:34;1.30;;;1.30;;
19057;SDS011;9662;53.612;9.914;2022-08-30T05:40:01;1.17;;;1.17;;
19057;SDS011;9662;53.612;9.914;2022-08-30T05:42:30;1.90;;;1.40;;
19057;SDS011;9662;53.612;9.914;2022-08-30T05:44:57;2.92;;;1.30;;
19057;SDS011;9662;53.612;9.914;2022-08-30T05:47:24;1.60;;;1.50;;
19057;SDS011;9662;53.612;9.914;2022-08-30T05:49:51;1.30;;;1.30;;
19057;SDS011;9662;53.612;9.914;2022-08-30T05:52:18;4.30;;;1.45;;
19057;SDS011;9662;53.612;9.914;2022-08-30T05:54:44;2.80;;;1.48;;
19057;SDS011;9662;53.612;9.914;2022-08-30T05:57:16;1.50;;;1.40;;
19057;SDS011;9662;53.612;9.914;2022-08-30T05:59:45;1.70;;;1.60;;
19057;SDS011;9662;53.612;9.914;2022-08-30T06:02:12;1.70;;;1.42;;
19057;SDS011;9662;53.612;9.914;2022-08-30T06:04:39;1.45;;;1.45;;
19057;SDS011;9662;53.612;9.914;2022-08-30T06:07:05;1.63;;;1.50;;
19057;SDS011;9662;53.612;9.914;2022-08-30T06:09:32;2.50;;;1.42;;
19057;SDS011;9662;53.612;9.914;2022-08-30T06:11:59;1.20;;;1.20;;
19057;SDS011;9662;53.612;9.914;2022-08-30T06:14:26;1.40;;;1.30;;
19057;SDS011;9662;53.612;9.914;2022-08-30T06:16:54;1.90;;;1.30;;
19057;SDS011;9662;53.612;9.914;2022-08-30T06:19:22;2.20;;;1.58;;
19057;SDS011;9662;53.612;9.914;2022-08-30T06:21:49;1.35;;;1.25;;
19057;SDS011;9662;53.612;9.914;2022-08-30T06:24:16;1.80;;;1.42;;
19057;SDS011;9662;53.612;9.914;2022-08-30T06:26:44;1.23;;;1.23;;
19057;SDS011;9662;53.612;9.914;2022-08-30T06:29:12;1.13;;;1.13;;
19057;SDS011;9662;53.612;9.914;2022-08-30T06:31:41;1.20;;;1.20;;
19057;SDS011;9662;53.612;9.914;2022-08-30T06:34:10;1.08;;;1.05;;
19057;SDS011;9662;53.612;9.914;2022-08-30T06:36:36;1.40;;;1.23;;
19057;SDS011;9662;53.612;9.914;2022-08-30T06:39:04;1.35;;;1.25;;
19057;SDS011;9662;53.612;9.914;2022-08-30T06:41:31;1.70;;;1.17;;
19057;SDS011;9662;53.612;9.914;2022-08-30T06:44:00;1.15;;;1.15;;
19057;SDS011;9662;53.612;9.914;2022-08-30T06:46:28;1.30;;;1.30;;
19057;SDS011;9662;53.612;9.914;2022-08-30T06:48:57;1.40;;;1.30;;
19057;SDS011;9662;53.612;9.914;2022-08-30T06:51:27;2.00;;;1.23;;
19057;SDS011;9662;53.612;9.914;2022-08-30T06:53:55;1.80;;;1.20;;
19057;SDS011;9662;53.612;9.914;2022-08-30T06:56:23;1.13;;;0.95;;
19057;SDS011;9662;53.612;9.914;2022-08-30T06:58:51;1.20;;;1.20;;
19057;SDS011;9662;53.612;9.914;2022-08-30T07:01:18;1.10;;;1.10;;
19057;SDS011;9662;53.612;9.914;2022-08-30T07:03:47;1.55;;;1.33;;
19057;SDS011;9662;53.612;9.914;2022-08-30T07:06:14;2.40;;;1.10;;
19057;SDS011;9662;53.612;9.914;2022-08-30T07:08:42;1.80;;;1.30;;
19057;SDS011;9662;53.612;9.914;2022-08-30T07:11:09;3.95;;;1.20;;
19057;SDS011;9662;53.612;9.914;2022-08-30T07:13:36;1.30;;;1.20;;
19057;SDS011;9662;53.612;9.914;2022-08-30T07:16:07;1.15;;;1.15;;
19057;SDS011;9662;53.612;9.914;2022-08-30T07:18:35;2.65;;;1.20;;
19057;SDS011;9662;53.612;9.914;2022-08-30T07:21:19;1.20;;;1.20;;
19057;SDS011;9662;53.612;9.914;2022-08-30T07:23:51;1.10;;;1.10;;
19057;SDS011;9662;53.612;9.914;2022-08-30T07:26:19;3.28;;;1.67;;
19057;SDS011;9662;53.612;9.914;2022-08-30T07:28:48;1.20;;;1.20;;
19057;SDS011;9662;53.612;9.914;2022-08-30T07:31:16;1.10;;;1.10;;
19057;SDS011;9662;53.612;9.914;2022-08-30T07:33:44;1.40;;;1.30;;
19057;SDS011;9662;53.612;9.914;2022-08-30T07:36:11;4.40;;;1.20;;
19057;SDS011;9662;53.612;9.914;2022-08-30T07:38:39;1.13;;;1.13;;
19057;SDS011;9662;53.612;9.914;2022-08-30T07:41:07;1.10;;;1.10;;
19057;SDS011;9662;53.612;9.914;2022-08-30T07:43:34;1.20;;;1.20;;
19057;SDS011;9662;53.612;9.914;2022-08-30T07:46:02;1.30;;;1.30;;
19057;SDS011;9662;53.612;9.914;2022-08-30T07:48:30;1.30;;;1.20;;
19057;SDS011;9662;53.612;9.914;2022-08-30T07:50:58;1.38;;;1.30;;
19057;SDS011;9662;53.612;9.914;2022-08-30T07:53:25;1.10;;;1.00;;
19057;SDS011;9662;53.612;9.914;2022-08-30T07:55:52;1.00;;;1.00;;
19057;SDS011;9662;53.612;9.914;2022-08-30T07:58:20;1.58;;;1.05;;
19057;SDS011;9662;53.612;9.914;2022-08-30T08:00:47;4.72;;;1.60;;
19057;SDS011;9662;53.612;9.914;2022-08-30T08:03:14;1.20;;;1.20;;
19057;SDS011;9662;53.612;9.914;2022-08-30T08:05:41;1.10;;;1.10;;
19057;SDS011;9662;53.612;9.914;2022-08-30T08:08:10;1.00;;;1.00;;
19057;SDS011;9662;53.612;9.914;2022-08-30T08:10:38;2.40;;;1.10;;
19057;SDS011;9662;53.612;9.914;2022-08-30T08:13:06;1.13;;;1.13;;
19057;SDS011;9662;53.612;9.914;2022-08-30T08:15:35;3.45;;;1.00;;
19057;SDS011;9662;53.612;9.914;2022-08-30T08:18:02;1.15;;;1.05;;
19057;SDS011;9662;53.612;9.914;2022-08-30T08:20:30;3.00;;;1.23;;
19057;SDS011;9662;53.612;9.914;2022-08-30T08:22:56;6.68;;;1.23;;
19057;SDS011;9662;53.612;9.914;2022-08-30T08:25:24;1.20;;;1.10;;
19057;SDS011;9662;53.612;9.914;2022-08-30T08:27:51;0.82;;;0.82;;
19057;SDS011;9662;53.612;9.914;2022-08-30T08:30:19;0.90;;;0.90;;
19057;SDS011;9662;53.612;9.914;2022-08-30T08:32:48;1.00;;;1.00;;
19057;SDS011;9662;53.612;9.914;2022-08-30T08:35:16;0.98;;;0.98;;
19057;SDS011;9662;53.612;9.914;2022-08-30T08:37:43;1.52;;;1.00;;
19057;SDS011;9662;53.612;9.914;2022-08-30T08:40:12;0.90;;;0.90;;
19057;SDS011;9662;53.612;9.914;2022-08-30T08:42:47;1.00;;;1.00;;
19057;SDS011;9662;53.612;9.914;2022-08-30T08:45:25;0.93;;;0.90;;
19057;SDS011;9662;53.612;9.914;2022-08-30T08:48:02;3.10;;;0.97;;
19057;SDS011;9662;53.612;9.914;2022-08-30T08:50:32;0.90;;;0.90;;
19057;SDS011;9662;53.612;9.914;2022-08-30T08:53:00;0.80;;;0.80;;
19057;SDS011;9662;53.612;9.914;2022-08-30T08:55:49;2.08;;;1.10;;
19057;SDS011;9662;53.612;9.914;2022-08-30T08:58:20;1.20;;;1.00;;
19057;SDS011;9662;53.612;9.914;2022-08-30T09:00:49;0.90;;;0.90;;
19057;SDS011;9662;53.612;9.914;2022-08-30T09:03:18;0.90;;;0.90;;
19057;SDS011;9662;53.612;9.914;2022-08-30T09:05:47;0.60;;;0.60;;
19057;SDS011;9662;53.612;9.914;2022-08-30T09:08:16;1.05;;;0.80;;
19057;SDS011;9662;53.612;9.914;2022-08-30T09:10:47;0.80;;;0.80;;
19057;SDS011;9662;53.612;9.914;2022-08-30T09:13:17;0.90;;;0.90;;
19057;SDS011;9662;53.612;9.914;2022-08-30T09:15:45;0.90;;;0.90;;
19057;SDS011;9662;53.612;9.914;2022-08-30T09:18:12;0.80;;;0.80;;
19057;SDS011;9662;53.612;9.914;2022-08-30T09:20:41;0.80;;;0.80;;
19057;SDS011;9662;53.612;9.914;2022-08-30T09:23:19;0.70;;;0.70;;
19057;SDS011;9662;53.612;9.914;2022-08-30T09:25:52;0.82;;;0.82;;
19057;SDS011;9662;53.612;9.914;2022-08-30T09:28:22;0.70;;;0.70;;
19057;SDS011;9662;53.612;9.914;2022-08-30T09:31:01;0.95;;;0.90;;
19057;SDS011;9662;53.612;9.914;2022-08-30T09:33:30;0.77;;;0.77;;
19057;SDS011;9662;53.612;9.914;2022-08-30T09:36:11;1.77;;;0.90;;
19057;SDS011;9662;53.612;9.914;2022-08-30T09:38:41;0.90;;;0.90;;
19057;SDS011;9662;53.612;9.914;2022-08-30T09:41:26;1.65;;;0.95;;
19057;SDS011;9662;53.612;9.914;2022-08-30T09:44:02;3.25;;;0.90;;
19057;SDS011;9662;53.612;9.914;2022-08-30T09:46:37;0.80;;;0.80;;
19057;SDS011;9662;53.612;9.914;2022-08-30T09:49:31;0.85;;;0.85;;
19057;SDS011;9662;53.612;9.914;2022-08-30T09:52:08;0.88;;;0.88;;
19057;SDS011;9662;53.612;9.914;2022-08-30T09:54:52;0.80;;;0.80;;
19057;SDS011;9662;53.612;9.914;2022-08-30T09:57:34;0.90;;;0.90;;
19057;SDS011;9662;53.612;9.914;2022-08-30T10:00:07;3.10;;;1.00;;
19057;SDS011;9662;53.612;9.914;2022-08-30T10:02:45;1.00;;;1.00;;
19057;SDS011;9662;53.612;9.914;2022-08-30T10:05:21;0.82;;;0.82;;
19057;SDS011;9662;53.612;9.914;2022-08-30T10:07:58;3.75;;;1.00;;
19057;SDS011;9662;53.612;9.914;2022-08-30T10:10:30;1.00;;;1.00;;
19057;SDS011;9662;53.612;9.914;2022-08-30T10:13:05;0.95;;;0.93;;
19057;SDS011;9662;53.612;9.914;2022-08-30T10:15:47;0.98;;;0.98;;
19057;SDS011;9662;53.612;9.914;2022-08-30T10:18:23;2.20;;;1.10;;
19057;SDS011;9662;53.612;9.914;2022-08-30T10:20:57;0.93;;;0.93;;
19057;SDS011;9662;53.612;9.914;2022-08-30T10:23:34;0.98;;;0.98;;
19057;SDS011;9662;53.612;9.914;2022-08-30T10:26:08;1.40;;;0.95;;
19057;SDS011;9662;53.612;9.914;2022-08-30T10:28:41;0.88;;;0.88;;
19057;SDS011;9662;53.612;9.914;2022-08-30T10:31:12;2.50;;;0.90;;
19057;SDS011;9662;53.612;9.914;2022-08-30T10:33:46;1.17;;;1.10;;
19057;SDS011;9662;53.612;9.914;2022-08-30T10:36:17;0.93;;;0.93;;
19057;SDS011;9662;53.612;9.914;2022-08-30T10:38:51;1.00;;;1.00;;
19057;SDS011;9662;53.612;9.914;2022-08-30T10:41:21;0.90;;;0.90;;
19057;SDS011;9662;53.612;9.914;2022-08-30T10:43:55;1.00;;;1.00;;
19057;SDS011;9662;53.612;9.914;2022-08-30T10:46:28;1.10;;;0.90;;
19057;SDS011;9662;53.612;9.914;2022-08-30T10:49:01;0.90;;;0.90;;
19057;SDS011;9662;53.612;9.914;2022-08-30T10:51:31;0.90;;;0.90;;
19057;SDS011;9662;53.612;9.914;2022-08-30T10:54:07;0.95;;;0.95;;
19057;SDS011;9662;53.612;9.914;2022-08-30T10:56:39;1.00;;;1.00;;
19057;SDS011;9662;53.612;9.914;2022-08-30T10:59:08;1.00;;;1.00;;
19057;SDS011;9662;53.612;9.914;2022-08-30T11:01:39;1.77;;;1.00;;
19057;SDS011;9662;53.612;9.914;2022-08-30T11:07:20;3.50;;;1.02;;
19057;SDS011;9662;53.612;9.914;2022-08-30T11:10:03;2.10;;;1.00;;
19057;SDS011;9662;53.612;9.914;2022-08-30T11:12:49;1.00;;;1.00;;
19057;SDS011;9662;53.612;9.914;2022-08-30T11:15:21;0.90;;;0.90;;
19057;SDS011;9662;53.612;9.914;2022-08-30T11:17:53;1.23;;;1.10;;
19057;SDS011;9662;53.612;9.914;2022-08-30T11:20:35;1.00;;;1.00;;
19057;SDS011;9662;53.612;9.914;2022-08-30T11:25:53;1.48;;;1.00;;
19057;SDS011;9662;53.612;9.914;2022-08-30T11:31:28;1.50;;;1.20;;
19057;SDS011;9662;53.612;9.914;2022-08-30T11:33:59;1.10;;;1.10;;
19057;SDS011;9662;53.612;9.914;2022-08-30T11:42:27;2.10;;;1.00;;
19057;SDS011;9662;53.612;9.914;2022-08-30T11:48:01;2.00;;;1.00;;
19057;SDS011;9662;53.612;9.914;2022-08-30T11:50:30;1.48;;;0.90;;
19057;SDS011;9662;53.612;9.914;2022-08-30T11:53:02;0.90;;;0.90;;
19057;SDS011;9662;53.612;9.914;2022-08-30T11:55:45;2.60;;;1.02;;
19057;SDS011;9662;53.612;9.914;2022-08-30T11:58:28;0.90;;;0.90;;
19057;SDS011;9662;53.612;9.914;2022-08-30T12:01:16;1.10;;;1.10;;
19057;SDS011;9662;53.612;9.914;2022-08-30T12:03:58;1.83;;;1.00;;
19057;SDS011;9662;53.612;9.914;2022-08-30T12:06:51;1.15;;;0.95;;
19057;SDS011;9662;53.612;9.914;2022-08-30T12:12:45;1.50;;;0.88;;
19057;SDS011;9662;53.612;9.914;2022-08-30T12:18:22;1.27;;;1.20;;
19057;SDS011;9662;53.612;9.914;2022-08-30T12:20:53;4.10;;;0.95;;
19057;SDS011;9662;53.612;9.914;2022-08-30T12:23:28;1.20;;;0.90;;
19057;SDS011;9662;53.612;9.914;2022-08-30T12:26:10;1.33;;;1.10;;
19057;SDS011;9662;53.612;9.914;2022-08-30T12:28:40;0.90;;;0.90;;
19057;SDS011;9662;53.612;9.914;2022-08-30T12:31:12;0.80;;;0.80;;
19057;SDS011;9662;53.612;9.914;2022-08-30T12:33:41;0.90;;;0.90;;
19057;SDS011;9662;53.612;9.914;2022-08-30T12:36:28;2.00;;;0.80;;
19057;SDS011;9662;53.612;9.914;2022-08-30T12:39:04;3.00;;;1.00;;
19057;SDS011;9662;53.612;9.914;2022-08-30T12:41:37;0.80;;;0.80;;
19057;SDS011;9662;53.612;9.914;2022-08-30T12:44:05;0.95;;;0.95;;
19057;SDS011;9662;53.612;9.914;2022-08-30T12:46:36;0.90;;;0.90;;
19057;SDS011;9662;53.612;9.914;2022-08-30T12:49:03;0.82;;;0.82;;
19057;SDS011;9662;53.612;9.914;2022-08-30T12:51:34;0.90;;;0.90;;
19057;SDS011;9662;53.612;9.914;2022-08-30T12:54:08;1.05;;;1.05;;
19057;SDS011;9662;53.612;9.914;2022-08-30T12:56:47;0.80;;;0.80;;
19057;SDS011;9662;53.612;9.914;2022-08-30T13:02:11;1.15;;;1.00;;
19057;SDS011;9662;53.612;9.914;2022-08-30T13:04:41;0.85;;;0.85;;
19057;SDS011;9662;53.612;9.914;2022-08-30T13:07:11;0.90;;;0.90;;
19057;SDS011;9662;53.612;9.914;2022-08-30T13:10:12;0.90;;;0.90;;
19057;SDS011;9662;53.612;9.914;2022-08-30T13:12:56;0.90;;;0.90;;
19057;SDS011;9662;53.612;9.914;2022-08-30T13:15:29;0.90;;;0.90;;
19057;SDS011;9662;53.612;9.914;2022-08-30T13:18:15;1.00;;;1.00;;
19057;SDS011;9662;53.612;9.914;2022-08-30T13:20:43;0.98;;;0.98;;
19057;SDS011;9662;53.612;9.914;2022-08-30T13:23:19;2.90;;;1.00;;
19057;SDS011;9662;53.612;9.914;2022-08-30T13:25:47;1.10;;;1.10;;
19057;SDS011;9662;53.612;9.914;2022-08-30T13:28:14;0.90;;;0.90;;
19057;SDS011;9662;53.612;9.914;2022-08-30T13:30:41;0.75;;;0.75;;
19057;SDS011;9662;53.612;9.914;2022-08-30T13:33:08;1.60;;;1.00;;
19057;SDS011;9662;53.612;9.914;2022-08-30T13:35:36;0.95;;;0.95;;
19057;SDS011;9662;53.612;9.914;2022-08-30T13:38:05;1.05;;;1.00;;
19057;SDS011;9662;53.612;9.914;2022-08-30T13:40:32;3.10;;;0.90;;
19057;SDS011;9662;53.612;9.914;2022-08-30T13:42:59;2.15;;;1.00;;
19057;SDS011;9662;53.612;9.914;2022-08-30T13:45:26;0.95;;;0.95;;
19057;SDS011;9662;53.612;9.914;2022-08-30T13:47:52;3.50;;;1.40;;
19057;SDS011;9662;53.612;9.914;2022-08-30T13:50:20;0.90;;;0.90;;
19057;SDS011;9662;53.612;9.914;2022-08-30T13:52:48;2.20;;;0.90;;
19057;SDS011;9662;53.612;9.914;2022-08-30T13:55:15;0.90;;;0.90;;
19057;SDS011;9662;53.612;9.914;2022-08-30T13:57:42;1.70;;;0.93;;
19057;SDS011;9662;53.612;9.914;2022-08-30T14:00:11;0.85;;;0.85;;
19057;SDS011;9662;53.612;9.914;2022-08-30T14:02:42;0.98;;;0.98;;
19057;SDS011;9662;53.612;9.914;2022-08-30T14:05:09;1.00;;;0.90;;
19057;SDS011;9662;53.612;9.914;2022-08-30T14:07:36;0.90;;;0.88;;
19057;SDS011;9662;53.612;9.914;2022-08-30T14:10:05;1.17;;;0.95;;
19057;SDS011;9662;53.612;9.914;2022-08-30T14:12:33;2.28;;;0.88;;
19057;SDS011;9662;53.612;9.914;2022-08-30T14:14:59;0.90;;;0.90;;
19057;SDS011;9662;53.612;9.914;2022-08-30T14:17:27;0.80;;;0.80;;
19057;SDS011;9662;53.612;9.914;2022-08-30T14:19:56;1.25;;;0.98;;
19057;SDS011;9662;53.612;9.914;2022-08-30T14:22:23;0.90;;;0.90;;
19057;SDS011;9662;53.612;9.914;2022-08-30T14:24:50;0.80;;;0.80;;
19057;SDS011;9662;53.612;9.914;2022-08-30T14:27:19;1.02;;;1.00;;
19057;SDS011;9662;53.612;9.914;2022-08-30T14:29:47;0.80;;;0.80;;
19057;SDS011;9662;53.612;9.914;2022-08-30T14:32:14;0.70;;;0.70;;
19057;SDS011;9662;53.612;9.914;2022-08-30T14:34:41;1.20;;;0.90;;
19057;SDS011;9662;53.612;9.914;2022-08-30T14:37:08;1.60;;;1.00;;
19057;SDS011;9662;53.612;9.914;2022-08-30T14:39:35;0.85;;;0.85;;
19057;SDS011;9662;53.612;9.914;2022-08-30T14:42:02;1.30;;;1.17;;
19057;SDS011;9662;53.612;9.914;2022-08-30T14:44:30;0.90;;;0.90;;
19057;SDS011;9662;53.612;9.914;2022-08-30T14:46:57;1.10;;;1.10;;
19057;SDS011;9662;53.612;9.914;2022-08-30T14:49:24;1.15;;;0.80;;
19057;SDS011;9662;53.612;9.914;2022-08-30T14:51:51;1.48;;;1.00;;
19057;SDS011;9662;53.612;9.914;2022-08-30T14:54:19;1.90;;;1.00;;
19057;SDS011;9662;53.612;9.914;2022-08-30T14:56:48;0.80;;;0.80;;
19057;SDS011;9662;53.612;9.914;2022-08-30T14:59:15;1.02;;;0.80;;
19057;SDS011;9662;53.612;9.914;2022-08-30T15:01:44;1.30;;;1.00;;
19057;SDS011;9662;53.612;9.914;2022-08-30T15:04:11;0.85;;;0.85;;
19057;SDS011;9662;53.612;9.914;2022-08-30T15:06:39;0.93;;;0.93;;
19057;SDS011;9662;53.612;9.914;2022-08-30T15:09:08;0.95;;;0.93;;
19057;SDS011;9662;53.612;9.914;2022-08-30T15:11:37;1.33;;;1.02;;
19057;SDS011;9662;53.612;9.914;2022-08-30T15:14:04;1.00;;;0.90;;
19057;SDS011;9662;53.612;9.914;2022-08-30T15:16:32;5.00;;;0.77;;
19057;SDS011;9662;53.612;9.914;2022-08-30T15:19:03;0.80;;;0.80;;
19057;SDS011;9662;53.612;9.914;2022-08-30T15:21:32;0.85;;;0.80;;
19057;SDS011;9662;53.612;9.914;2022-08-30T15:24:00;0.90;;;0.90;;
19057;SDS011;9662;53.612;9.914;2022-08-30T15:26:28;0.82;;;0.82;;
19057;SDS011;9662;53.612;9.914;2022-08-30T15:28:55;1.30;;;0.90;;
19057;SDS011;9662;53.612;9.914;2022-08-30T15:31:23;0.93;;;0.73;;
19057;SDS011;9662;53.612;9.914;2022-08-30T15:33:53;0.70;;;0.70;;
19057;SDS011;9662;53.612;9.914;2022-08-30T15:36:21;0.70;;;0.70;;
19057;SDS011;9662;53.612;9.914;2022-08-30T15:38:48;0.90;;;0.90;;
19057;SDS011;9662;53.612;9.914;2022-08-30T15:41:16;0.85;;;0.85;;
19057;SDS011;9662;53.612;9.914;2022-08-30T15:43:43;0.80;;;0.80;;